createdAt,value
2022-12-31T00:00:01.692Z,6.44
2022-12-31T00:00:11.701Z,6.44
2022-12-31T00:00:21.724Z,6.43
2022-12-31T00:00:31.721Z,6.44
2022-12-31T00:00:41.714Z,6.43
2022-12-31T00:00:51.711Z,6.43
2022-12-31T00:01:01.664Z,6.45
2022-12-31T00:01:11.670Z,6.47
2022-12-31T00:01:21.673Z,6.47
2022-12-31T00:01:31.685Z,6.48
2022-12-31T00:01:41.707Z,6.48
2022-12-31T00:01:51.715Z,6.48
2022-12-31T00:02:01.795Z,6.49
2022-12-31T00:02:11.774Z,6.48
2022-12-31T00:02:21.761Z,6.49
2022-12-31T00:02:31.848Z,6.49
2022-12-31T00:02:41.835Z,6.49
2022-12-31T00:02:51.736Z,6.51
2022-12-31T00:03:01.809Z,6.50
2022-12-31T00:03:11.788Z,6.52
2022-12-31T00:03:21.732Z,6.50
2022-12-31T00:03:31.747Z,6.52
2022-12-31T00:03:41.691Z,6.52
2022-12-31T00:03:51.678Z,6.52
2022-12-31T00:04:01.676Z,6.55
2022-12-31T00:04:11.694Z,6.55
2022-12-31T00:04:21.677Z,6.53
2022-12-31T00:04:31.683Z,6.54
2022-12-31T00:04:41.755Z,6.55
2022-12-31T00:04:51.683Z,6.56
2022-12-31T00:05:01.697Z,6.54
2022-12-31T00:05:11.691Z,6.55
2022-12-31T00:05:21.697Z,6.53
2022-12-31T00:05:31.703Z,6.54
2022-12-31T00:05:41.758Z,6.53
2022-12-31T00:05:51.720Z,6.52
2022-12-31T00:06:01.688Z,6.54
2022-12-31T00:06:11.690Z,6.54
2022-12-31T00:06:21.704Z,6.54
2022-12-31T00:06:31.702Z,6.53
2022-12-31T00:06:41.703Z,6.55
2022-12-31T00:06:51.692Z,6.54
2022-12-31T00:07:01.744Z,6.56
2022-12-31T00:07:11.702Z,6.56
2022-12-31T00:07:21.713Z,6.56
2022-12-31T00:07:50.421Z,6.41
2022-12-31T00:08:00.401Z,6.51
2022-12-31T00:08:10.409Z,6.54
2022-12-31T00:08:20.415Z,6.54
2022-12-31T00:08:30.408Z,6.54
2022-12-31T00:08:40.409Z,6.54
2022-12-31T00:08:50.418Z,6.54
2022-12-31T00:09:00.404Z,6.55
2022-12-31T00:09:10.416Z,6.56
2022-12-31T00:09:20.416Z,6.55
2022-12-31T00:09:30.420Z,6.55
2022-12-31T00:09:40.414Z,6.57
2022-12-31T00:09:50.488Z,6.58
2022-12-31T00:10:00.421Z,6.57
2022-12-31T00:10:10.419Z,6.58
2022-12-31T00:10:20.431Z,6.58
2022-12-31T00:10:30.411Z,6.58
2022-12-31T00:10:40.415Z,6.60
2022-12-31T00:10:50.437Z,6.58
2022-12-31T00:11:00.413Z,6.58
2022-12-31T00:11:10.444Z,6.60
2022-12-31T00:11:20.415Z,6.62
2022-12-31T00:11:30.421Z,6.61
2022-12-31T00:11:40.421Z,6.62
2022-12-31T00:11:50.425Z,6.64
2022-12-31T00:12:00.423Z,6.63
2022-12-31T00:12:10.458Z,6.61
2022-12-31T00:12:20.424Z,6.62
2022-12-31T00:12:30.425Z,6.63
2022-12-31T00:12:40.440Z,6.63
2022-12-31T00:12:50.444Z,6.63
2022-12-31T00:13:00.499Z,6.62
2022-12-31T00:13:10.441Z,6.63
2022-12-31T00:13:20.457Z,6.65
2022-12-31T00:13:30.428Z,6.67
2022-12-31T00:13:40.448Z,6.66
2022-12-31T00:13:50.439Z,6.66
2022-12-31T00:14:00.439Z,6.67
2022-12-31T00:14:10.440Z,6.66
2022-12-31T00:14:20.437Z,6.68
2022-12-31T00:14:30.437Z,6.69
2022-12-31T00:14:40.459Z,6.70
2022-12-31T00:14:50.485Z,6.68
2022-12-31T00:15:00.443Z,6.68
2022-12-31T00:15:10.444Z,6.69
2022-12-31T00:15:20.511Z,6.70
2022-12-31T00:15:30.451Z,6.69
2022-12-31T00:15:40.441Z,6.70
2022-12-31T00:15:50.444Z,6.69
2022-12-31T00:16:00.446Z,6.69
2022-12-31T00:16:12.485Z,6.69
2022-12-31T00:16:20.512Z,6.68
2022-12-31T00:16:30.470Z,6.68
2022-12-31T00:16:40.494Z,6.69
2022-12-31T00:16:50.500Z,6.69
2022-12-31T00:17:00.529Z,6.70
2022-12-31T00:17:10.579Z,6.68
2022-12-31T00:17:20.450Z,6.69
2022-12-31T00:17:30.448Z,6.69
2022-12-31T00:17:40.450Z,6.69
2022-12-31T00:17:50.451Z,6.70
2022-12-31T00:18:00.463Z,6.70
2022-12-31T00:18:10.448Z,6.70
2022-12-31T00:18:20.452Z,6.70
2022-12-31T00:18:30.474Z,6.70
2022-12-31T00:18:40.451Z,6.69
2022-12-31T00:18:50.470Z,6.71
2022-12-31T00:19:00.462Z,6.70
2022-12-31T00:19:10.477Z,6.72
2022-12-31T00:19:20.492Z,6.70
2022-12-31T00:19:30.470Z,6.72
2022-12-31T00:19:40.469Z,6.71
2022-12-31T00:19:50.463Z,6.74
2022-12-31T00:20:00.466Z,6.72
2022-12-31T00:20:10.469Z,6.71
2022-12-31T00:20:20.455Z,6.71
2022-12-31T00:20:30.460Z,6.71
2022-12-31T00:20:40.476Z,6.70
2022-12-31T00:20:50.473Z,6.73
2022-12-31T00:21:00.466Z,6.73
2022-12-31T00:21:10.460Z,6.73
2022-12-31T00:21:20.469Z,6.73
2022-12-31T00:21:30.471Z,6.73
2022-12-31T00:21:40.481Z,6.73
2022-12-31T00:21:50.477Z,6.74
2022-12-31T00:22:00.487Z,6.76
2022-12-31T00:22:10.477Z,6.77
2022-12-31T00:22:20.469Z,6.75
2022-12-31T00:22:30.481Z,6.78
2022-12-31T00:22:40.484Z,6.78
2022-12-31T00:22:50.477Z,6.78
2022-12-31T00:23:00.475Z,6.78
2022-12-31T00:23:10.494Z,6.81
2022-12-31T00:23:20.513Z,6.79
2022-12-31T00:23:30.492Z,6.81
2022-12-31T00:23:40.480Z,6.80
2022-12-31T00:23:50.472Z,6.81
2022-12-31T00:24:00.475Z,6.83
2022-12-31T00:24:10.485Z,6.82
2022-12-31T00:24:20.482Z,6.84
2022-12-31T00:24:30.487Z,6.80
2022-12-31T00:24:40.492Z,6.81
2022-12-31T00:24:50.481Z,6.81
2022-12-31T00:25:00.479Z,6.83
2022-12-31T00:25:10.484Z,6.84
2022-12-31T00:25:20.478Z,6.81
2022-12-31T00:25:30.498Z,6.80
2022-12-31T00:25:40.491Z,6.80
2022-12-31T00:25:50.483Z,6.83
2022-12-31T00:26:00.490Z,6.81
2022-12-31T00:26:10.500Z,6.81
2022-12-31T00:26:20.492Z,6.79
2022-12-31T00:26:30.486Z,6.80
2022-12-31T00:26:40.510Z,6.80
2022-12-31T00:26:50.485Z,6.79
2022-12-31T00:27:00.504Z,6.81
2022-12-31T00:27:10.493Z,6.80
2022-12-31T00:27:20.504Z,6.79
2022-12-31T00:27:30.499Z,6.82
2022-12-31T00:27:40.505Z,6.80
2022-12-31T00:27:50.489Z,6.81
2022-12-31T00:28:01.324Z,6.78
2022-12-31T00:28:10.521Z,6.79
2022-12-31T00:28:20.496Z,6.81
2022-12-31T00:28:30.499Z,6.80
2022-12-31T00:28:40.513Z,6.78
2022-12-31T00:28:50.501Z,6.80
2022-12-31T00:29:00.517Z,6.80
2022-12-31T00:29:10.497Z,6.79
2022-12-31T00:29:20.500Z,6.81
2022-12-31T00:29:30.506Z,6.80
2022-12-31T00:29:40.525Z,6.83
2022-12-31T00:29:50.511Z,6.82
2022-12-31T00:30:04.414Z,6.83
2022-12-31T00:30:10.521Z,6.80
2022-12-31T00:30:20.504Z,6.81
2022-12-31T00:30:30.542Z,6.82
2022-12-31T00:30:40.538Z,6.83
2022-12-31T00:30:50.551Z,6.83
2022-12-31T00:31:00.533Z,6.82
2022-12-31T00:31:10.570Z,6.83
2022-12-31T00:31:20.540Z,6.82
2022-12-31T00:31:30.519Z,6.81
2022-12-31T00:31:40.515Z,6.81
2022-12-31T00:31:50.525Z,6.80
2022-12-31T00:32:00.519Z,6.82
2022-12-31T00:32:10.516Z,6.83
2022-12-31T00:32:20.511Z,6.82
2022-12-31T00:32:30.514Z,6.83
2022-12-31T00:32:40.516Z,6.84
2022-12-31T00:32:50.524Z,6.84
2022-12-31T00:33:00.520Z,6.84
2022-12-31T00:33:10.518Z,6.86
2022-12-31T00:33:20.525Z,6.85
2022-12-31T00:33:30.529Z,6.85
2022-12-31T00:33:40.519Z,6.86
2022-12-31T00:33:50.523Z,6.85
2022-12-31T00:34:00.523Z,6.85
2022-12-31T00:34:10.519Z,6.85
2022-12-31T00:34:20.529Z,6.87
2022-12-31T00:34:30.518Z,6.86
2022-12-31T00:34:40.519Z,6.85
2022-12-31T00:34:50.546Z,6.87
2022-12-31T00:35:00.529Z,6.88
2022-12-31T00:35:10.576Z,6.90
2022-12-31T00:35:20.533Z,6.91
2022-12-31T00:35:30.528Z,6.90
2022-12-31T00:35:40.526Z,6.89
2022-12-31T00:35:50.541Z,6.91
2022-12-31T00:36:00.536Z,6.91
2022-12-31T00:36:10.538Z,6.90
2022-12-31T00:36:20.525Z,6.92
2022-12-31T00:36:30.538Z,6.92
2022-12-31T00:36:40.530Z,6.89
2022-12-31T00:36:50.545Z,6.91
2022-12-31T00:37:00.535Z,6.92
2022-12-31T00:37:10.538Z,6.92
2022-12-31T00:37:20.554Z,6.92
2022-12-31T00:37:30.537Z,6.95
2022-12-31T00:37:40.542Z,6.94
2022-12-31T00:37:50.542Z,6.95
2022-12-31T00:38:00.565Z,6.94
2022-12-31T00:38:10.535Z,6.96
2022-12-31T00:38:20.549Z,6.97
2022-12-31T00:38:30.549Z,6.98
2022-12-31T00:38:40.533Z,6.97
2022-12-31T00:38:50.540Z,6.99
2022-12-31T00:39:00.543Z,6.98
2022-12-31T00:39:10.545Z,6.98
2022-12-31T00:39:20.541Z,6.98
2022-12-31T00:39:30.543Z,6.97
2022-12-31T00:39:40.539Z,6.97
2022-12-31T00:39:50.578Z,6.98
2022-12-31T00:40:00.549Z,6.98
2022-12-31T00:40:10.551Z,6.99
2022-12-31T00:40:20.573Z,6.98
2022-12-31T00:40:30.553Z,7.00
2022-12-31T00:40:40.548Z,7.00
2022-12-31T00:40:50.552Z,6.98
2022-12-31T00:41:00.566Z,7.00
2022-12-31T00:41:10.548Z,7.01
2022-12-31T00:41:20.554Z,7.01
2022-12-31T00:41:30.572Z,7.01
2022-12-31T00:41:40.560Z,7.01
2022-12-31T00:41:50.547Z,7.03
2022-12-31T00:42:00.566Z,7.02
2022-12-31T00:42:10.565Z,7.03
2022-12-31T00:42:20.566Z,7.02
2022-12-31T00:42:30.571Z,7.03
2022-12-31T00:42:40.558Z,7.01
2022-12-31T00:42:50.554Z,7.04
2022-12-31T00:43:00.566Z,7.05
2022-12-31T00:43:10.553Z,7.04
2022-12-31T00:43:20.555Z,7.04
2022-12-31T00:43:30.580Z,7.05
2022-12-31T00:43:40.557Z,7.05
2022-12-31T00:43:50.573Z,7.07
2022-12-31T00:44:00.574Z,7.08
2022-12-31T00:44:10.576Z,7.06
2022-12-31T00:44:20.577Z,7.07
2022-12-31T00:44:30.563Z,7.09
2022-12-31T00:44:40.567Z,7.07
2022-12-31T00:44:50.615Z,7.08
2022-12-31T00:45:00.575Z,7.07
2022-12-31T00:45:10.572Z,7.07
2022-12-31T00:45:20.574Z,7.07
2022-12-31T00:45:30.577Z,7.09
2022-12-31T00:45:40.566Z,7.08
2022-12-31T00:45:50.614Z,7.08
2022-12-31T00:46:00.590Z,7.07
2022-12-31T00:46:10.628Z,7.07
2022-12-31T00:46:20.669Z,7.08
2022-12-31T00:46:30.634Z,7.09
2022-12-31T00:46:58.731Z,6.97
2022-12-31T00:47:08.731Z,7.02
2022-12-31T00:47:18.738Z,7.07
2022-12-31T00:47:28.734Z,7.07
2022-12-31T00:47:38.733Z,7.07
2022-12-31T00:47:48.737Z,7.08
2022-12-31T00:47:58.739Z,7.07
2022-12-31T00:48:08.752Z,7.08
2022-12-31T00:48:18.758Z,7.07
2022-12-31T00:48:28.751Z,7.09
2022-12-31T00:48:38.725Z,7.09
2022-12-31T00:48:48.740Z,7.09
2022-12-31T00:48:58.769Z,7.09
2022-12-31T00:49:08.742Z,7.08
2022-12-31T00:49:18.743Z,7.09
2022-12-31T00:49:28.740Z,7.10
2022-12-31T00:49:38.748Z,7.11
2022-12-31T00:49:48.762Z,7.14
2022-12-31T00:49:58.750Z,7.14
2022-12-31T00:50:08.757Z,7.13
2022-12-31T00:50:18.748Z,7.16
2022-12-31T00:50:28.748Z,7.17
2022-12-31T00:50:38.748Z,7.16
2022-12-31T00:50:48.752Z,7.17
2022-12-31T00:50:58.758Z,7.15
2022-12-31T00:51:08.756Z,7.16
2022-12-31T00:51:18.764Z,7.16
2022-12-31T00:51:28.759Z,7.17
2022-12-31T00:51:38.758Z,7.15
2022-12-31T00:51:48.764Z,7.14
2022-12-31T00:51:58.749Z,7.15
2022-12-31T00:52:08.760Z,7.16
2022-12-31T00:52:18.771Z,7.18
2022-12-31T00:52:28.767Z,7.17
2022-12-31T00:52:38.777Z,7.18
2022-12-31T00:52:48.775Z,7.18
2022-12-31T00:52:58.768Z,7.16
2022-12-31T00:53:08.768Z,7.15
2022-12-31T00:53:18.763Z,7.15
2022-12-31T00:53:28.752Z,7.15
2022-12-31T00:53:38.762Z,7.15
2022-12-31T00:53:48.774Z,7.17
2022-12-31T00:53:58.784Z,7.17
2022-12-31T00:54:08.766Z,7.16
2022-12-31T00:54:18.774Z,7.17
2022-12-31T00:54:28.775Z,7.16
2022-12-31T00:54:38.773Z,7.18
2022-12-31T00:54:48.772Z,7.17
2022-12-31T00:54:58.785Z,7.17
2022-12-31T00:55:08.786Z,7.19
2022-12-31T00:55:18.769Z,7.20
2022-12-31T00:55:28.778Z,7.17
2022-12-31T00:55:38.779Z,7.19
2022-12-31T00:55:48.774Z,7.19
2022-12-31T00:55:58.778Z,7.20
2022-12-31T00:56:08.788Z,7.18
2022-12-31T00:56:19.659Z,7.18
2022-12-31T00:56:28.783Z,7.18
2022-12-31T00:56:38.779Z,7.19
2022-12-31T00:56:48.782Z,7.19
2022-12-31T00:56:58.787Z,7.18
2022-12-31T00:57:08.793Z,7.20
2022-12-31T00:57:18.790Z,7.19
2022-12-31T00:57:28.788Z,7.19
2022-12-31T00:57:38.786Z,7.21
2022-12-31T00:57:48.788Z,7.21
2022-12-31T00:57:58.786Z,7.20
2022-12-31T00:58:08.794Z,7.21
2022-12-31T00:58:18.792Z,7.22
2022-12-31T00:58:28.797Z,7.21
2022-12-31T00:58:38.796Z,7.21
2022-12-31T00:58:48.806Z,7.20
2022-12-31T00:58:58.803Z,7.20
2022-12-31T00:59:08.804Z,7.21
2022-12-31T00:59:18.811Z,7.21
2022-12-31T00:59:28.791Z,7.21
2022-12-31T00:59:38.791Z,7.21
2022-12-31T00:59:48.795Z,7.24
2022-12-31T00:59:58.809Z,7.23
2022-12-31T01:00:08.806Z,7.23
2022-12-31T01:00:18.815Z,7.22
2022-12-31T01:00:28.823Z,7.24
2022-12-31T01:00:38.804Z,7.22
2022-12-31T01:00:48.799Z,7.22
2022-12-31T01:00:58.806Z,7.24
2022-12-31T01:01:09.000Z,7.25
2022-12-31T01:01:18.981Z,7.25
2022-12-31T01:01:28.923Z,7.23
2022-12-31T01:01:38.976Z,7.24
2022-12-31T01:01:48.881Z,7.23
2022-12-31T01:01:58.911Z,7.24
2022-12-31T01:02:09.010Z,7.26
2022-12-31T01:02:18.974Z,7.25
2022-12-31T01:02:29.004Z,7.27
2022-12-31T01:02:38.925Z,7.27
2022-12-31T01:02:49.007Z,7.28
2022-12-31T01:02:58.971Z,7.29
2022-12-31T01:03:08.821Z,7.27
2022-12-31T01:03:18.860Z,7.30
2022-12-31T01:03:28.838Z,7.30
2022-12-31T01:03:38.836Z,7.29
2022-12-31T01:03:48.824Z,7.28
2022-12-31T01:03:58.805Z,7.27
2022-12-31T01:04:08.814Z,7.30
2022-12-31T01:04:18.808Z,7.30
2022-12-31T01:04:28.812Z,7.30
2022-12-31T01:04:38.811Z,7.29
2022-12-31T01:04:48.808Z,7.27
2022-12-31T01:04:58.863Z,7.29
2022-12-31T01:05:08.827Z,7.26
2022-12-31T01:05:18.809Z,7.28
2022-12-31T01:05:28.808Z,7.27
2022-12-31T01:05:38.811Z,7.27
2022-12-31T01:05:48.806Z,7.28
2022-12-31T01:05:58.809Z,7.28
2022-12-31T01:06:08.813Z,7.28
2022-12-31T01:06:18.817Z,7.29
2022-12-31T01:06:28.821Z,7.28
2022-12-31T01:06:38.839Z,7.29
2022-12-31T01:06:48.817Z,7.28
2022-12-31T01:06:58.818Z,7.29
2022-12-31T01:07:08.833Z,7.28
2022-12-31T01:07:18.821Z,7.28
2022-12-31T01:07:28.823Z,7.29
2022-12-31T01:07:38.818Z,7.30
2022-12-31T01:07:48.832Z,7.29
2022-12-31T01:07:58.823Z,7.30
2022-12-31T01:08:08.826Z,7.29
2022-12-31T01:08:18.822Z,7.31
2022-12-31T01:08:28.841Z,7.30
2022-12-31T01:08:38.821Z,7.29
2022-12-31T01:08:48.841Z,7.31
2022-12-31T01:08:58.829Z,7.30
2022-12-31T01:09:08.822Z,7.30
2022-12-31T01:09:18.829Z,7.30
2022-12-31T01:09:28.836Z,7.29
2022-12-31T01:09:38.825Z,7.30
2022-12-31T01:09:48.823Z,7.29
2022-12-31T01:09:58.845Z,7.32
2022-12-31T01:10:08.838Z,7.33
2022-12-31T01:10:18.825Z,7.33
2022-12-31T01:10:28.832Z,7.32
2022-12-31T01:10:38.846Z,7.32
2022-12-31T01:10:48.833Z,7.31
2022-12-31T01:10:58.841Z,7.28
2022-12-31T01:11:08.853Z,7.31
2022-12-31T01:11:18.833Z,7.30
2022-12-31T01:11:28.837Z,7.31
2022-12-31T01:11:38.841Z,7.33
2022-12-31T01:11:48.834Z,7.33
2022-12-31T01:11:58.837Z,7.32
2022-12-31T01:12:08.851Z,7.31
2022-12-31T01:12:18.841Z,7.33
2022-12-31T01:12:28.843Z,7.32
2022-12-31T01:12:38.849Z,7.32
2022-12-31T01:12:48.838Z,7.33
2022-12-31T01:12:58.838Z,7.34
2022-12-31T01:13:08.857Z,7.35
2022-12-31T01:13:18.842Z,7.37
2022-12-31T01:13:28.868Z,7.38
2022-12-31T01:13:38.849Z,7.37
2022-12-31T01:13:48.844Z,7.38
2022-12-31T01:13:58.844Z,7.39
2022-12-31T01:14:08.850Z,7.39
2022-12-31T01:14:18.848Z,7.40
2022-12-31T01:14:28.867Z,7.40
2022-12-31T01:14:38.859Z,7.40
2022-12-31T01:14:48.848Z,7.40
2022-12-31T01:14:58.849Z,7.39
2022-12-31T01:15:08.867Z,7.39
2022-12-31T01:15:18.859Z,7.40
2022-12-31T01:15:28.885Z,7.38
2022-12-31T01:15:38.893Z,7.38
2022-12-31T01:15:48.917Z,7.38
2022-12-31T01:15:58.895Z,7.36
2022-12-31T01:16:08.945Z,7.38
2022-12-31T01:16:18.860Z,7.40
2022-12-31T01:16:28.859Z,7.38
2022-12-31T01:16:38.878Z,7.39
2022-12-31T01:16:48.869Z,7.39
2022-12-31T01:16:58.860Z,7.39
2022-12-31T01:17:08.870Z,7.39
2022-12-31T01:17:18.864Z,7.39
2022-12-31T01:17:28.872Z,7.38
2022-12-31T01:17:38.876Z,7.39
2022-12-31T01:17:48.862Z,7.39
2022-12-31T01:17:58.869Z,7.40
2022-12-31T01:18:08.871Z,7.41
2022-12-31T01:18:18.882Z,7.43
2022-12-31T01:18:28.870Z,7.42
2022-12-31T01:18:38.869Z,7.45
2022-12-31T01:18:48.865Z,7.44
2022-12-31T01:18:58.868Z,7.43
2022-12-31T01:19:08.875Z,7.45
2022-12-31T01:19:18.866Z,7.42
2022-12-31T01:19:28.881Z,7.43
2022-12-31T01:19:38.875Z,7.43
2022-12-31T01:19:48.869Z,7.43
2022-12-31T01:19:58.883Z,7.44
2022-12-31T01:20:08.881Z,7.45
2022-12-31T01:20:18.880Z,7.46
2022-12-31T01:20:28.870Z,7.48
2022-12-31T01:20:38.898Z,7.48
2022-12-31T01:20:48.869Z,7.50
2022-12-31T01:20:58.872Z,7.48
2022-12-31T01:21:08.870Z,7.48
2022-12-31T01:21:18.875Z,7.47
2022-12-31T01:21:28.877Z,7.47
2022-12-31T01:21:38.889Z,7.44
2022-12-31T01:21:48.912Z,7.46
2022-12-31T01:21:58.874Z,7.45
2022-12-31T01:22:08.877Z,7.46
2022-12-31T01:22:18.885Z,7.45
2022-12-31T01:22:28.917Z,7.47
2022-12-31T01:22:38.877Z,7.49
2022-12-31T01:22:48.879Z,7.51
2022-12-31T01:22:58.909Z,7.49
2022-12-31T01:23:08.880Z,7.52
2022-12-31T01:23:18.885Z,7.51
2022-12-31T01:23:28.882Z,7.51
2022-12-31T01:23:38.888Z,7.49
2022-12-31T01:23:48.901Z,7.50
2022-12-31T01:23:58.901Z,7.50
2022-12-31T01:24:08.884Z,7.50
2022-12-31T01:24:18.887Z,7.51
2022-12-31T01:24:28.901Z,7.51
2022-12-31T01:24:38.892Z,7.50
2022-12-31T01:24:48.885Z,7.50
2022-12-31T01:24:58.890Z,7.51
2022-12-31T01:25:08.896Z,7.50
2022-12-31T01:25:18.901Z,7.49
2022-12-31T01:25:28.891Z,7.51
2022-12-31T01:25:38.904Z,7.51
2022-12-31T01:25:48.897Z,7.51
2022-12-31T01:25:58.894Z,7.52
2022-12-31T01:26:08.891Z,7.51
2022-12-31T01:26:18.912Z,7.51
2022-12-31T01:26:28.903Z,7.51
2022-12-31T01:26:39.658Z,7.52
2022-12-31T01:26:48.908Z,7.51
2022-12-31T01:26:58.904Z,7.50
2022-12-31T01:27:08.901Z,7.49
2022-12-31T01:27:18.902Z,7.52
2022-12-31T01:27:28.907Z,7.52
2022-12-31T01:27:38.898Z,7.53
2022-12-31T01:27:48.905Z,7.55
2022-12-31T01:27:58.921Z,7.54
2022-12-31T01:28:08.899Z,7.58
2022-12-31T01:28:18.927Z,7.55
2022-12-31T01:28:28.908Z,7.56
2022-12-31T01:28:38.901Z,7.57
2022-12-31T01:28:48.907Z,7.57
2022-12-31T01:28:58.914Z,7.59
2022-12-31T01:29:08.911Z,7.58
2022-12-31T01:29:18.909Z,7.59
2022-12-31T01:29:28.904Z,7.58
2022-12-31T01:29:38.914Z,7.59
2022-12-31T01:29:48.914Z,7.58
2022-12-31T01:29:58.903Z,7.59
2022-12-31T01:30:08.908Z,7.59
2022-12-31T01:30:18.919Z,7.59
2022-12-31T01:30:28.915Z,7.60
2022-12-31T01:30:38.929Z,7.59
2022-12-31T01:30:48.928Z,7.59
2022-12-31T01:30:58.925Z,7.60
2022-12-31T01:31:09.004Z,7.61
2022-12-31T01:31:19.000Z,7.61
2022-12-31T01:31:28.929Z,7.61
2022-12-31T01:31:38.910Z,7.62
2022-12-31T01:31:48.910Z,7.62
2022-12-31T01:31:58.911Z,7.61
2022-12-31T01:32:08.915Z,7.61
2022-12-31T01:32:18.935Z,7.62
2022-12-31T01:32:28.908Z,7.61
2022-12-31T01:32:38.916Z,7.61
2022-12-31T01:32:48.923Z,7.61
2022-12-31T01:32:58.917Z,7.61
2022-12-31T01:33:08.914Z,7.62
2022-12-31T01:33:18.950Z,7.62
2022-12-31T01:33:28.912Z,7.63
2022-12-31T01:33:38.919Z,7.60
2022-12-31T01:33:48.918Z,7.61
2022-12-31T01:33:58.924Z,7.63
2022-12-31T01:34:08.915Z,7.63
2022-12-31T01:34:18.924Z,7.63
2022-12-31T01:34:28.943Z,7.63
2022-12-31T01:34:38.925Z,7.63
2022-12-31T01:34:48.927Z,7.64
2022-12-31T01:34:58.923Z,7.63
2022-12-31T01:35:08.937Z,7.63
2022-12-31T01:35:18.926Z,7.65
2022-12-31T01:35:28.923Z,7.65
2022-12-31T01:35:38.925Z,7.64
2022-12-31T01:35:48.946Z,7.65
2022-12-31T01:35:58.920Z,7.64
2022-12-31T01:36:08.922Z,7.65
2022-12-31T01:36:23.598Z,7.64
2022-12-31T01:36:29.938Z,7.62
2022-12-31T01:36:38.933Z,7.60
2022-12-31T01:36:48.938Z,7.63
2022-12-31T01:36:58.943Z,7.63
2022-12-31T01:37:08.923Z,7.63
2022-12-31T01:37:18.940Z,7.64
2022-12-31T01:37:28.933Z,7.64
2022-12-31T01:37:38.945Z,7.65
2022-12-31T01:37:48.956Z,7.65
2022-12-31T01:37:58.934Z,7.67
2022-12-31T01:38:08.935Z,7.66
2022-12-31T01:38:18.946Z,7.65
2022-12-31T01:38:28.938Z,7.66
2022-12-31T01:38:38.945Z,7.67
2022-12-31T01:38:48.954Z,7.67
2022-12-31T01:38:58.940Z,7.68
2022-12-31T01:39:08.977Z,7.69
2022-12-31T01:39:18.947Z,7.69
2022-12-31T01:39:28.942Z,7.70
2022-12-31T01:39:38.943Z,7.70
2022-12-31T01:39:48.954Z,7.70
2022-12-31T01:39:58.942Z,7.71
2022-12-31T01:40:09.158Z,7.68
2022-12-31T01:40:18.947Z,7.68
2022-12-31T01:40:28.956Z,7.68
2022-12-31T01:40:38.945Z,7.70
2022-12-31T01:40:48.964Z,7.70
2022-12-31T01:40:58.950Z,7.70
2022-12-31T01:41:08.972Z,7.69
2022-12-31T01:41:18.966Z,7.71
2022-12-31T01:41:28.955Z,7.70
2022-12-31T01:41:38.950Z,7.70
2022-12-31T01:41:48.955Z,7.71
2022-12-31T01:41:58.948Z,7.71
2022-12-31T01:42:08.948Z,7.72
2022-12-31T01:42:18.965Z,7.71
2022-12-31T01:42:28.956Z,7.71
2022-12-31T01:42:38.955Z,7.74
2022-12-31T01:42:48.961Z,7.73
2022-12-31T01:42:58.952Z,7.73
2022-12-31T01:43:08.959Z,7.73
2022-12-31T01:43:18.969Z,7.74
2022-12-31T01:43:28.961Z,7.74
2022-12-31T01:43:38.963Z,7.71
2022-12-31T01:43:48.987Z,7.71
2022-12-31T01:43:58.998Z,7.70
2022-12-31T01:44:08.968Z,7.71
2022-12-31T01:44:18.978Z,7.70
2022-12-31T01:44:28.971Z,7.70
2022-12-31T01:44:38.962Z,7.71
2022-12-31T01:44:48.964Z,7.73
2022-12-31T01:44:58.966Z,7.72
2022-12-31T01:45:08.968Z,7.72
2022-12-31T01:45:18.977Z,7.72
2022-12-31T01:45:28.965Z,7.72
2022-12-31T01:45:38.983Z,7.71
2022-12-31T01:45:48.973Z,7.73
2022-12-31T01:45:59.004Z,7.73
2022-12-31T01:46:09.004Z,7.75
2022-12-31T01:46:19.015Z,7.76
2022-12-31T01:46:29.011Z,7.73
2022-12-31T01:46:39.049Z,7.72
2022-12-31T01:46:48.973Z,7.73
2022-12-31T01:46:58.981Z,7.73
2022-12-31T01:47:08.976Z,7.72
2022-12-31T01:47:18.974Z,7.73
2022-12-31T01:47:28.981Z,7.74
2022-12-31T01:47:38.979Z,7.74
2022-12-31T01:47:48.978Z,7.74
2022-12-31T01:47:58.985Z,7.73
2022-12-31T01:48:08.982Z,7.72
2022-12-31T01:48:18.998Z,7.71
2022-12-31T01:48:28.980Z,7.72
2022-12-31T01:48:38.976Z,7.72
2022-12-31T01:48:48.976Z,7.73
2022-12-31T01:48:58.984Z,7.73
2022-12-31T01:49:08.989Z,7.73
2022-12-31T01:49:18.991Z,7.72
2022-12-31T01:49:28.984Z,7.74
2022-12-31T01:49:38.988Z,7.74
2022-12-31T01:49:48.988Z,7.75
2022-12-31T01:49:58.987Z,7.75
2022-12-31T01:50:08.993Z,7.76
2022-12-31T01:50:18.981Z,7.76
2022-12-31T01:50:28.987Z,7.76
2022-12-31T01:50:38.992Z,7.76
2022-12-31T01:50:48.987Z,7.74
2022-12-31T01:50:59.003Z,7.76
2022-12-31T01:51:09.008Z,7.75
2022-12-31T01:51:18.985Z,7.74
2022-12-31T01:51:28.995Z,7.75
2022-12-31T01:51:39.004Z,7.74
2022-12-31T01:51:48.998Z,7.78
2022-12-31T01:51:58.997Z,7.77
2022-12-31T01:52:09.010Z,7.76
2022-12-31T01:52:18.992Z,7.76
2022-12-31T01:52:28.998Z,7.77
2022-12-31T01:52:39.012Z,7.77
2022-12-31T01:52:48.994Z,7.77
2022-12-31T01:52:59.022Z,7.79
2022-12-31T01:53:09.006Z,7.79
2022-12-31T01:53:18.996Z,7.78
2022-12-31T01:53:29.007Z,7.78
2022-12-31T01:53:40.900Z,7.80
2022-12-31T01:53:49.017Z,7.78
2022-12-31T01:53:58.998Z,7.79
2022-12-31T01:54:09.045Z,7.80
2022-12-31T01:54:18.997Z,7.79
2022-12-31T01:54:29.020Z,7.80
2022-12-31T01:54:39.010Z,7.80
2022-12-31T01:54:49.002Z,7.80
2022-12-31T01:54:59.005Z,7.81
2022-12-31T01:55:09.012Z,7.82
2022-12-31T01:55:19.006Z,7.82
2022-12-31T01:55:29.002Z,7.81
2022-12-31T01:55:39.012Z,7.81
2022-12-31T01:55:49.003Z,7.81
2022-12-31T01:55:59.009Z,7.82
2022-12-31T01:56:09.007Z,7.82
2022-12-31T01:56:19.008Z,7.84
2022-12-31T01:56:29.015Z,7.83
2022-12-31T01:56:39.022Z,7.83
2022-12-31T01:56:49.014Z,7.83
2022-12-31T01:56:59.011Z,7.83
2022-12-31T01:57:09.016Z,7.83
2022-12-31T01:57:19.012Z,7.84
2022-12-31T01:57:29.016Z,7.85
2022-12-31T01:57:39.011Z,7.84
2022-12-31T01:57:49.015Z,7.83
2022-12-31T01:57:59.076Z,7.86
2022-12-31T01:58:09.046Z,7.83
2022-12-31T01:58:19.033Z,7.85
2022-12-31T01:58:29.037Z,7.83
2022-12-31T01:58:39.018Z,7.83
2022-12-31T01:58:49.018Z,7.84
2022-12-31T01:58:59.025Z,7.84
2022-12-31T01:59:09.048Z,7.85
2022-12-31T01:59:19.026Z,7.85
2022-12-31T01:59:29.027Z,7.86
2022-12-31T01:59:39.021Z,7.84
2022-12-31T01:59:49.028Z,7.85
2022-12-31T01:59:59.032Z,7.85
2022-12-31T02:00:09.041Z,7.87
2022-12-31T02:00:19.041Z,7.85
2022-12-31T02:00:29.030Z,7.85
2022-12-31T02:00:39.030Z,7.86
2022-12-31T02:00:49.033Z,7.86
2022-12-31T02:00:59.117Z,7.86
2022-12-31T02:01:09.043Z,7.87
2022-12-31T02:01:19.133Z,7.86
2022-12-31T02:01:29.166Z,7.87
2022-12-31T02:01:39.136Z,7.86
2022-12-31T02:01:49.148Z,7.86
2022-12-31T02:01:59.231Z,7.86
2022-12-31T02:02:09.079Z,7.87
2022-12-31T02:02:19.154Z,7.87
2022-12-31T02:02:29.139Z,7.88
2022-12-31T02:02:39.157Z,7.88
2022-12-31T02:02:49.088Z,7.87
2022-12-31T02:02:59.077Z,7.87
2022-12-31T02:03:09.064Z,7.87
2022-12-31T02:03:19.081Z,7.86
2022-12-31T02:03:29.089Z,7.86
2022-12-31T02:03:39.053Z,7.87
2022-12-31T02:03:49.047Z,7.86
2022-12-31T02:03:59.040Z,7.86
2022-12-31T02:04:09.034Z,7.87
2022-12-31T02:04:19.053Z,7.86
2022-12-31T02:04:29.049Z,7.86
2022-12-31T02:04:39.039Z,7.87
2022-12-31T02:04:49.045Z,7.86
2022-12-31T02:04:59.057Z,7.87
2022-12-31T02:05:09.049Z,7.88
2022-12-31T02:05:19.044Z,7.86
2022-12-31T02:05:29.048Z,7.84
2022-12-31T02:05:39.044Z,7.86
2022-12-31T02:05:49.062Z,7.85
2022-12-31T02:05:59.092Z,7.86
2022-12-31T02:06:09.050Z,7.87
2022-12-31T02:06:19.056Z,7.88
2022-12-31T02:06:29.059Z,7.88
2022-12-31T02:06:39.051Z,7.86
2022-12-31T02:06:49.050Z,7.87
2022-12-31T02:06:59.059Z,7.88
2022-12-31T02:07:09.117Z,7.86
2022-12-31T02:07:19.054Z,7.87
2022-12-31T02:07:29.061Z,7.87
2022-12-31T02:07:39.056Z,7.87
2022-12-31T02:07:49.060Z,7.89
2022-12-31T02:07:59.054Z,7.90
2022-12-31T02:08:09.058Z,7.88
2022-12-31T02:08:19.061Z,7.89
2022-12-31T02:08:29.070Z,7.88
2022-12-31T02:08:42.177Z,7.89
2022-12-31T02:08:49.060Z,7.90
2022-12-31T02:08:59.065Z,7.88
2022-12-31T02:09:09.064Z,7.88
2022-12-31T02:09:19.085Z,7.88
2022-12-31T02:09:29.078Z,7.90
2022-12-31T02:09:39.064Z,7.90
2022-12-31T02:09:49.097Z,7.90
2022-12-31T02:09:59.071Z,7.91
2022-12-31T02:10:09.076Z,7.92
2022-12-31T02:10:19.075Z,7.91
2022-12-31T02:10:29.076Z,7.93
2022-12-31T02:10:39.065Z,7.93
2022-12-31T02:10:49.075Z,7.92
2022-12-31T02:10:59.075Z,7.94
2022-12-31T02:11:09.069Z,7.92
2022-12-31T02:11:19.069Z,7.93
2022-12-31T02:11:29.078Z,7.93
2022-12-31T02:11:39.101Z,7.92
2022-12-31T02:11:49.076Z,7.92
2022-12-31T02:11:59.080Z,7.91
2022-12-31T02:12:09.080Z,7.90
2022-12-31T02:12:19.087Z,7.91
2022-12-31T02:12:29.092Z,7.91
2022-12-31T02:12:39.079Z,7.92
2022-12-31T02:12:49.075Z,7.91
2022-12-31T02:12:59.096Z,7.94
2022-12-31T02:13:09.078Z,7.94
2022-12-31T02:13:19.078Z,7.93
2022-12-31T02:13:29.111Z,7.92
2022-12-31T02:13:39.082Z,7.94